Main page
METAR-TAF:

METAR-TAF

Airports :

Dimapur Airport

Dimapur, India

latitude: 25-53-02N, longitude: 093-46-16E, elevation: 148 m

Current weather observation

The report was made 10 hours and 29 minutes ago, at 09:00 UTC
Wind 4 kt from the East
Temperature 27°C
Humidity 48%
Pressure 1011 hPa
Visibility: 5000 m
Few clouds at a height of 2000 ft
haze

METAR: VEMR 010900Z 08004KT 5000 HZ FEW020 27/15 Q1011 NOSIG

Time: 00:59 (19:29 UTC)

Forecast

The report was made 2 hours and 29 minutes ago, at 17:00 UTC
Forecast valid from 01 at 18 UTC to 02 at 03 UTC
Wind kt from the North
Visibility: 2500 m
Few clouds at a height of 1800 ft
Scattered clouds at a height of 10000 ft
mist
Becoming
from 01 at 00 UTC to 01 at 02 UTC
Visibility: 1500 m
mist

TAF: VEMR 011700Z 0118/0203 00000KT 2500 BR FEW018 SCT100 BECMG 0100/0102 1500 BR

Weather observations and forecasts of more than 4000 airports (METAR and TAF reports).

The available stations are represented by yellow and red dots on the map.

Hover mouse over dot to see the name of the station.

Then click to see weather observations and forecasts.

To change the map : click on the green buttons with a black cross to zoom in, on the green button with a dash to zoom out, or on the green arrows for adjacent maps.


METAR-TAF: